Terminal Aerodrome Forecast
Issued by NWS

Home | Current Version | Previous Version | Text Only | Print | Product List | Glossary On
Versions: 1 2 3 4 5 6 7 8 9 10 11 12 13 14 15 16 17 18 19 20 21 22 23
000
FTUS44 KLIX 282300
TAFHUM
TAF
KHUM 282323Z 2900/2924 12006KT P6SM FEW035 SCT100
      TEMPO 2909/2912 5SM BR
     FM291300 06005KT P6SM BKN070 BKN250
     FM291400 08006KT P6SM VCSH SCT035 BKN060
      TEMPO 2917/2921 2SM TSRA BKN030CB=

USA.gov is the U.S. government's official web portal to all federal, state and local government web resources and services.